sensor_id;sensor_type;location;lat;lon;timestamp;P1;durP1;ratioP1;P2;durP2;ratioP2
24483;SDS011;12643;51.620;7.548;2023-07-29T00:00:24;3.90;;;2.30;;
24483;SDS011;12643;51.620;7.548;2023-07-29T00:02:53;2.63;;;2.42;;
24483;SDS011;12643;51.620;7.548;2023-07-29T00:05:21;4.32;;;2.60;;
24483;SDS011;12643;51.620;7.548;2023-07-29T00:07:49;2.60;;;2.40;;
24483;SDS011;12643;51.620;7.548;2023-07-29T00:10:16;3.00;;;2.80;;
24483;SDS011;12643;51.620;7.548;2023-07-29T00:12:44;2.70;;;2.50;;
24483;SDS011;12643;51.620;7.548;2023-07-29T00:15:13;2.58;;;2.38;;
24483;SDS011;12643;51.620;7.548;2023-07-29T00:17:41;3.65;;;2.90;;
24483;SDS011;12643;51.620;7.548;2023-07-29T00:20:09;2.70;;;2.22;;
24483;SDS011;12643;51.620;7.548;2023-07-29T00:22:37;2.53;;;2.33;;
24483;SDS011;12643;51.620;7.548;2023-07-29T00:25:05;4.45;;;3.40;;
24483;SDS011;12643;51.620;7.548;2023-07-29T00:27:33;3.00;;;2.70;;
24483;SDS011;12643;51.620;7.548;2023-07-29T00:30:01;3.08;;;2.42;;
24483;SDS011;12643;51.620;7.548;2023-07-29T00:32:31;3.55;;;2.88;;
24483;SDS011;12643;51.620;7.548;2023-07-29T00:34:59;3.83;;;3.42;;
24483;SDS011;12643;51.620;7.548;2023-07-29T00:37:27;5.45;;;3.25;;
24483;SDS011;12643;51.620;7.548;2023-07-29T00:39:56;3.90;;;3.33;;
24483;SDS011;12643;51.620;7.548;2023-07-29T00:42:24;3.63;;;3.00;;
24483;SDS011;12643;51.620;7.548;2023-07-29T00:44:52;3.88;;;2.72;;
24483;SDS011;12643;51.620;7.548;2023-07-29T00:47:20;5.47;;;3.35;;
24483;SDS011;12643;51.620;7.548;2023-07-29T00:49:51;3.23;;;2.93;;
24483;SDS011;12643;51.620;7.548;2023-07-29T00:52:19;4.65;;;2.83;;
24483;SDS011;12643;51.620;7.548;2023-07-29T00:54:47;2.50;;;2.30;;
24483;SDS011;12643;51.620;7.548;2023-07-29T00:57:15;2.88;;;2.67;;
24483;SDS011;12643;51.620;7.548;2023-07-29T00:59:44;2.92;;;2.63;;
24483;SDS011;12643;51.620;7.548;2023-07-29T01:02:12;4.40;;;2.65;;
24483;SDS011;12643;51.620;7.548;2023-07-29T01:04:40;3.13;;;2.83;;
24483;SDS011;12643;51.620;7.548;2023-07-29T01:07:11;2.90;;;2.58;;
24483;SDS011;12643;51.620;7.548;2023-07-29T01:09:46;2.47;;;2.28;;
24483;SDS011;12643;51.620;7.548;2023-07-29T01:12:26;2.38;;;2.17;;
24483;SDS011;12643;51.620;7.548;2023-07-29T01:15:01;2.30;;;2.10;;
24483;SDS011;12643;51.620;7.548;2023-07-29T01:17:43;3.75;;;2.53;;
24483;SDS011;12643;51.620;7.548;2023-07-29T01:20:15;2.95;;;2.75;;
24483;SDS011;12643;51.620;7.548;2023-07-29T01:22:47;3.10;;;2.80;;
24483;SDS011;12643;51.620;7.548;2023-07-29T01:25:17;2.70;;;2.50;;
24483;SDS011;12643;51.620;7.548;2023-07-29T01:27:45;7.07;;;2.28;;
24483;SDS011;12643;51.620;7.548;2023-07-29T01:30:13;3.63;;;3.17;;
24483;SDS011;12643;51.620;7.548;2023-07-29T01:32:43;3.83;;;3.42;;
24483;SDS011;12643;51.620;7.548;2023-07-29T01:35:15;3.25;;;2.97;;
24483;SDS011;12643;51.620;7.548;2023-07-29T01:37:51;3.25;;;2.60;;
24483;SDS011;12643;51.620;7.548;2023-07-29T01:40:23;2.85;;;2.65;;
24483;SDS011;12643;51.620;7.548;2023-07-29T01:42:52;2.72;;;2.53;;
24483;SDS011;12643;51.620;7.548;2023-07-29T01:45:22;6.97;;;3.40;;
24483;SDS011;12643;51.620;7.548;2023-07-29T01:47:51;3.92;;;2.80;;
24483;SDS011;12643;51.620;7.548;2023-07-29T01:50:19;2.97;;;2.70;;
24483;SDS011;12643;51.620;7.548;2023-07-29T01:52:47;2.97;;;2.70;;
24483;SDS011;12643;51.620;7.548;2023-07-29T01:55:15;5.50;;;3.53;;
24483;SDS011;12643;51.620;7.548;2023-07-29T01:57:44;3.00;;;2.80;;
24483;SDS011;12643;51.620;7.548;2023-07-29T02:00:12;3.55;;;2.75;;
24483;SDS011;12643;51.620;7.548;2023-07-29T02:02:40;3.15;;;2.85;;
24483;SDS011;12643;51.620;7.548;2023-07-29T02:05:07;5.25;;;3.00;;
24483;SDS011;12643;51.620;7.548;2023-07-29T02:07:37;2.92;;;2.60;;
24483;SDS011;12643;51.620;7.548;2023-07-29T02:10:05;2.63;;;2.42;;
24483;SDS011;12643;51.620;7.548;2023-07-29T02:12:34;2.75;;;2.55;;
24483;SDS011;12643;51.620;7.548;2023-07-29T02:15:03;4.22;;;3.00;;
24483;SDS011;12643;51.620;7.548;2023-07-29T02:17:32;3.08;;;2.55;;
24483;SDS011;12643;51.620;7.548;2023-07-29T02:20:00;5.63;;;2.70;;
24483;SDS011;12643;51.620;7.548;2023-07-29T02:22:29;7.50;;;2.90;;
24483;SDS011;12643;51.620;7.548;2023-07-29T02:24:56;3.38;;;3.03;;
24483;SDS011;12643;51.620;7.548;2023-07-29T02:27:24;3.85;;;2.90;;
24483;SDS011;12643;51.620;7.548;2023-07-29T02:29:53;3.10;;;2.47;;
24483;SDS011;12643;51.620;7.548;2023-07-29T02:32:22;2.90;;;2.70;;
24483;SDS011;12643;51.620;7.548;2023-07-29T02:34:50;3.63;;;3.08;;
24483;SDS011;12643;51.620;7.548;2023-07-29T02:37:18;3.83;;;2.72;;
24483;SDS011;12643;51.620;7.548;2023-07-29T02:39:46;3.15;;;2.85;;
24483;SDS011;12643;51.620;7.548;2023-07-29T02:42:14;2.85;;;2.50;;
24483;SDS011;12643;51.620;7.548;2023-07-29T02:44:41;3.65;;;2.53;;
24483;SDS011;12643;51.620;7.548;2023-07-29T02:47:09;3.20;;;2.90;;
24483;SDS011;12643;51.620;7.548;2023-07-29T02:49:38;2.90;;;2.70;;
24483;SDS011;12643;51.620;7.548;2023-07-29T02:52:06;3.17;;;2.85;;
24483;SDS011;12643;51.620;7.548;2023-07-29T02:54:34;5.88;;;2.55;;
24483;SDS011;12643;51.620;7.548;2023-07-29T02:57:02;3.50;;;2.92;;
24483;SDS011;12643;51.620;7.548;2023-07-29T02:59:30;3.33;;;3.03;;
24483;SDS011;12643;51.620;7.548;2023-07-29T03:01:58;3.72;;;2.97;;
24483;SDS011;12643;51.620;7.548;2023-07-29T03:04:26;3.65;;;3.33;;
24483;SDS011;12643;51.620;7.548;2023-07-29T03:06:55;5.45;;;3.35;;
24483;SDS011;12643;51.620;7.548;2023-07-29T03:09:23;5.55;;;2.97;;
24483;SDS011;12643;51.620;7.548;2023-07-29T03:11:51;4.38;;;3.10;;
24483;SDS011;12643;51.620;7.548;2023-07-29T03:14:20;3.70;;;2.85;;
24483;SDS011;12643;51.620;7.548;2023-07-29T03:16:48;4.10;;;3.80;;
24483;SDS011;12643;51.620;7.548;2023-07-29T03:19:16;3.33;;;3.03;;
24483;SDS011;12643;51.620;7.548;2023-07-29T03:21:44;3.35;;;3.00;;
24483;SDS011;12643;51.620;7.548;2023-07-29T03:24:13;4.70;;;3.55;;
24483;SDS011;12643;51.620;7.548;2023-07-29T03:26:41;3.13;;;2.90;;
24483;SDS011;12643;51.620;7.548;2023-07-29T03:29:09;6.00;;;3.28;;
24483;SDS011;12643;51.620;7.548;2023-07-29T03:31:36;4.25;;;3.42;;
24483;SDS011;12643;51.620;7.548;2023-07-29T03:34:04;4.30;;;3.50;;
24483;SDS011;12643;51.620;7.548;2023-07-29T03:36:32;3.10;;;2.90;;
24483;SDS011;12643;51.620;7.548;2023-07-29T03:39:00;6.35;;;3.38;;
24483;SDS011;12643;51.620;7.548;2023-07-29T03:41:31;4.47;;;3.03;;
24483;SDS011;12643;51.620;7.548;2023-07-29T03:43:58;4.10;;;3.38;;
24483;SDS011;12643;51.620;7.548;2023-07-29T03:46:26;3.80;;;3.35;;
24483;SDS011;12643;51.620;7.548;2023-07-29T03:48:54;3.15;;;2.90;;
24483;SDS011;12643;51.620;7.548;2023-07-29T03:51:22;3.50;;;3.20;;
24483;SDS011;12643;51.620;7.548;2023-07-29T03:53:50;3.00;;;2.80;;
24483;SDS011;12643;51.620;7.548;2023-07-29T03:56:18;3.20;;;3.00;;
24483;SDS011;12643;51.620;7.548;2023-07-29T03:58:47;2.90;;;2.70;;
24483;SDS011;12643;51.620;7.548;2023-07-29T04:01:15;4.57;;;3.00;;
24483;SDS011;12643;51.620;7.548;2023-07-29T04:03:42;2.92;;;2.72;;
24483;SDS011;12643;51.620;7.548;2023-07-29T04:06:11;3.90;;;2.75;;
24483;SDS011;12643;51.620;7.548;2023-07-29T04:08:39;2.72;;;2.53;;
24483;SDS011;12643;51.620;7.548;2023-07-29T04:11:07;4.70;;;2.90;;
24483;SDS011;12643;51.620;7.548;2023-07-29T04:13:35;3.17;;;2.80;;
24483;SDS011;12643;51.620;7.548;2023-07-29T04:16:05;4.90;;;2.40;;
24483;SDS011;12643;51.620;7.548;2023-07-29T04:18:33;2.90;;;2.70;;
24483;SDS011;12643;51.620;7.548;2023-07-29T04:21:01;3.08;;;2.70;;
24483;SDS011;12643;51.620;7.548;2023-07-29T04:23:29;5.75;;;3.00;;
24483;SDS011;12643;51.620;7.548;2023-07-29T04:25:57;3.03;;;2.50;;
24483;SDS011;12643;51.620;7.548;2023-07-29T04:28:25;2.97;;;2.78;;
24483;SDS011;12643;51.620;7.548;2023-07-29T04:30:52;3.00;;;2.33;;
24483;SDS011;12643;51.620;7.548;2023-07-29T04:33:22;3.10;;;2.80;;
24483;SDS011;12643;51.620;7.548;2023-07-29T04:35:49;2.88;;;2.38;;
24483;SDS011;12643;51.620;7.548;2023-07-29T04:38:17;2.80;;;2.38;;
24483;SDS011;12643;51.620;7.548;2023-07-29T04:40:45;4.78;;;2.72;;
24483;SDS011;12643;51.620;7.548;2023-07-29T04:43:15;2.72;;;2.53;;
24483;SDS011;12643;51.620;7.548;2023-07-29T04:45:43;3.85;;;3.30;;
24483;SDS011;12643;51.620;7.548;2023-07-29T04:48:11;3.88;;;2.95;;
24483;SDS011;12643;51.620;7.548;2023-07-29T04:50:40;3.70;;;2.75;;
24483;SDS011;12643;51.620;7.548;2023-07-29T04:53:07;4.00;;;3.03;;
24483;SDS011;12643;51.620;7.548;2023-07-29T04:55:35;3.25;;;2.88;;
24483;SDS011;12643;51.620;7.548;2023-07-29T04:58:04;3.40;;;3.10;;
24483;SDS011;12643;51.620;7.548;2023-07-29T05:00:32;4.05;;;3.33;;
24483;SDS011;12643;51.620;7.548;2023-07-29T05:03:00;2.83;;;2.63;;
24483;SDS011;12643;51.620;7.548;2023-07-29T05:05:28;5.43;;;3.28;;
24483;SDS011;12643;51.620;7.548;2023-07-29T05:07:57;4.85;;;3.13;;
24483;SDS011;12643;51.620;7.548;2023-07-29T05:10:25;4.07;;;3.65;;
24483;SDS011;12643;51.620;7.548;2023-07-29T05:12:52;4.13;;;3.33;;
24483;SDS011;12643;51.620;7.548;2023-07-29T05:15:20;4.20;;;3.70;;
24483;SDS011;12643;51.620;7.548;2023-07-29T05:17:48;5.45;;;4.18;;
24483;SDS011;12643;51.620;7.548;2023-07-29T05:20:16;9.15;;;4.50;;
24483;SDS011;12643;51.620;7.548;2023-07-29T05:22:43;6.68;;;4.97;;
24483;SDS011;12643;51.620;7.548;2023-07-29T05:25:13;9.73;;;7.07;;
24483;SDS011;12643;51.620;7.548;2023-07-29T05:27:41;12.88;;;7.47;;
24483;SDS011;12643;51.620;7.548;2023-07-29T05:30:09;13.85;;;8.40;;
24483;SDS011;12643;51.620;7.548;2023-07-29T05:32:37;13.50;;;8.85;;
24483;SDS011;12643;51.620;7.548;2023-07-29T05:35:05;14.85;;;9.30;;
24483;SDS011;12643;51.620;7.548;2023-07-29T05:37:34;11.32;;;8.65;;
24483;SDS011;12643;51.620;7.548;2023-07-29T05:40:02;10.07;;;8.55;;
24483;SDS011;12643;51.620;7.548;2023-07-29T05:42:32;14.18;;;9.10;;
24483;SDS011;12643;51.620;7.548;2023-07-29T05:44:59;11.40;;;7.82;;
24483;SDS011;12643;51.620;7.548;2023-07-29T05:47:28;11.23;;;8.40;;
24483;SDS011;12643;51.620;7.548;2023-07-29T05:49:56;12.20;;;8.73;;
24483;SDS011;12643;51.620;7.548;2023-07-29T05:52:23;12.25;;;8.35;;
24483;SDS011;12643;51.620;7.548;2023-07-29T05:54:51;12.73;;;9.55;;
24483;SDS011;12643;51.620;7.548;2023-07-29T05:57:19;16.13;;;10.93;;
24483;SDS011;12643;51.620;7.548;2023-07-29T05:59:48;13.40;;;10.13;;
24483;SDS011;12643;51.620;7.548;2023-07-29T06:02:16;10.90;;;9.48;;
24483;SDS011;12643;51.620;7.548;2023-07-29T06:04:44;13.23;;;9.80;;
24483;SDS011;12643;51.620;7.548;2023-07-29T06:07:11;12.20;;;10.65;;
24483;SDS011;12643;51.620;7.548;2023-07-29T06:09:39;9.75;;;8.73;;
24483;SDS011;12643;51.620;7.548;2023-07-29T06:12:07;13.55;;;8.25;;
24483;SDS011;12643;51.620;7.548;2023-07-29T06:14:35;7.88;;;7.07;;
24483;SDS011;12643;51.620;7.548;2023-07-29T06:17:05;11.55;;;7.88;;
24483;SDS011;12643;51.620;7.548;2023-07-29T06:19:33;8.40;;;7.50;;
24483;SDS011;12643;51.620;7.548;2023-07-29T06:22:01;11.85;;;7.43;;
24483;SDS011;12643;51.620;7.548;2023-07-29T06:24:29;13.43;;;8.38;;
24483;SDS011;12643;51.620;7.548;2023-07-29T06:26:57;10.70;;;9.70;;
24483;SDS011;12643;51.620;7.548;2023-07-29T06:29:25;13.15;;;10.15;;
24483;SDS011;12643;51.620;7.548;2023-07-29T06:31:53;13.18;;;10.60;;
24483;SDS011;12643;51.620;7.548;2023-07-29T06:34:22;14.82;;;10.80;;
24483;SDS011;12643;51.620;7.548;2023-07-29T06:36:50;13.30;;;11.95;;
24483;SDS011;12643;51.620;7.548;2023-07-29T06:39:18;14.75;;;12.57;;
24483;SDS011;12643;51.620;7.548;2023-07-29T06:41:45;15.52;;;12.30;;
24483;SDS011;12643;51.620;7.548;2023-07-29T06:44:13;14.90;;;9.95;;
24483;SDS011;12643;51.620;7.548;2023-07-29T06:46:42;10.30;;;9.02;;
24483;SDS011;12643;51.620;7.548;2023-07-29T06:49:09;8.43;;;7.53;;
24483;SDS011;12643;51.620;7.548;2023-07-29T06:51:39;10.40;;;6.95;;
24483;SDS011;12643;51.620;7.548;2023-07-29T06:54:07;5.97;;;5.35;;
24483;SDS011;12643;51.620;7.548;2023-07-29T06:56:35;4.25;;;3.13;;
24483;SDS011;12643;51.620;7.548;2023-07-29T06:59:03;4.57;;;2.55;;
24483;SDS011;12643;51.620;7.548;2023-07-29T07:01:30;3.78;;;2.85;;
24483;SDS011;12643;51.620;7.548;2023-07-29T07:03:58;3.03;;;2.70;;
24483;SDS011;12643;51.620;7.548;2023-07-29T07:06:26;4.68;;;2.38;;
24483;SDS011;12643;51.620;7.548;2023-07-29T07:08:55;3.10;;;2.20;;
24483;SDS011;12643;51.620;7.548;2023-07-29T07:11:23;3.88;;;2.08;;
24483;SDS011;12643;51.620;7.548;2023-07-29T07:13:51;3.65;;;1.90;;
24483;SDS011;12643;51.620;7.548;2023-07-29T07:16:19;3.47;;;1.80;;
24483;SDS011;12643;51.620;7.548;2023-07-29T07:18:47;2.30;;;1.60;;
24483;SDS011;12643;51.620;7.548;2023-07-29T07:21:15;2.67;;;1.80;;
24483;SDS011;12643;51.620;7.548;2023-07-29T07:23:42;2.15;;;1.95;;
24483;SDS011;12643;51.620;7.548;2023-07-29T07:26:12;3.05;;;2.00;;
24483;SDS011;12643;51.620;7.548;2023-07-29T07:28:39;2.28;;;2.03;;
24483;SDS011;12643;51.620;7.548;2023-07-29T07:31:07;2.28;;;1.50;;
24483;SDS011;12643;51.620;7.548;2023-07-29T07:33:35;2.97;;;1.60;;
24483;SDS011;12643;51.620;7.548;2023-07-29T07:36:03;3.65;;;1.77;;
24483;SDS011;12643;51.620;7.548;2023-07-29T07:38:31;5.50;;;1.95;;
24483;SDS011;12643;51.620;7.548;2023-07-29T07:40:59;3.63;;;2.10;;
24483;SDS011;12643;51.620;7.548;2023-07-29T07:43:28;3.70;;;2.20;;
24483;SDS011;12643;51.620;7.548;2023-07-29T07:45:59;4.32;;;2.53;;
24483;SDS011;12643;51.620;7.548;2023-07-29T07:48:28;8.35;;;4.85;;
24483;SDS011;12643;51.620;7.548;2023-07-29T07:50:55;5.05;;;2.92;;
24483;SDS011;12643;51.620;7.548;2023-07-29T07:53:26;6.57;;;3.85;;
24483;SDS011;12643;51.620;7.548;2023-07-29T07:55:54;6.15;;;4.40;;
24483;SDS011;12643;51.620;7.548;2023-07-29T07:58:21;8.13;;;4.32;;
24483;SDS011;12643;51.620;7.548;2023-07-29T08:00:50;8.80;;;4.65;;
24483;SDS011;12643;51.620;7.548;2023-07-29T08:03:19;6.95;;;3.83;;
24483;SDS011;12643;51.620;7.548;2023-07-29T08:05:47;8.07;;;3.38;;
24483;SDS011;12643;51.620;7.548;2023-07-29T08:08:15;9.25;;;3.10;;
24483;SDS011;12643;51.620;7.548;2023-07-29T08:10:43;5.88;;;2.70;;
24483;SDS011;12643;51.620;7.548;2023-07-29T08:13:11;4.50;;;2.38;;
24483;SDS011;12643;51.620;7.548;2023-07-29T08:15:38;4.57;;;2.20;;
24483;SDS011;12643;51.620;7.548;2023-07-29T08:18:08;3.92;;;2.20;;
24483;SDS011;12643;51.620;7.548;2023-07-29T08:20:36;2.65;;;1.88;;
24483;SDS011;12643;51.620;7.548;2023-07-29T08:23:04;2.80;;;1.77;;
24483;SDS011;12643;51.620;7.548;2023-07-29T08:25:32;3.38;;;1.85;;
24483;SDS011;12643;51.620;7.548;2023-07-29T08:28:00;2.60;;;2.13;;
24483;SDS011;12643;51.620;7.548;2023-07-29T08:30:29;2.35;;;1.58;;
24483;SDS011;12643;51.620;7.548;2023-07-29T08:32:57;2.35;;;1.90;;
24483;SDS011;12643;51.620;7.548;2023-07-29T08:35:26;3.55;;;1.95;;
24483;SDS011;12643;51.620;7.548;2023-07-29T08:37:54;3.25;;;2.33;;
24483;SDS011;12643;51.620;7.548;2023-07-29T08:40:22;4.78;;;2.22;;
24483;SDS011;12643;51.620;7.548;2023-07-29T08:42:56;4.30;;;2.00;;
24483;SDS011;12643;51.620;7.548;2023-07-29T08:45:27;3.75;;;2.55;;
24483;SDS011;12643;51.620;7.548;2023-07-29T08:47:57;2.72;;;2.10;;
24483;SDS011;12643;51.620;7.548;2023-07-29T08:50:28;2.60;;;2.10;;
24483;SDS011;12643;51.620;7.548;2023-07-29T08:52:58;4.03;;;1.55;;
24483;SDS011;12643;51.620;7.548;2023-07-29T08:55:27;5.00;;;1.77;;
24483;SDS011;12643;51.620;7.548;2023-07-29T08:57:55;2.17;;;1.50;;
24483;SDS011;12643;51.620;7.548;2023-07-29T09:00:25;3.88;;;1.80;;
24483;SDS011;12643;51.620;7.548;2023-07-29T09:02:54;3.00;;;1.40;;
24483;SDS011;12643;51.620;7.548;2023-07-29T09:05:29;6.53;;;1.35;;
24483;SDS011;12643;51.620;7.548;2023-07-29T09:07:58;2.00;;;1.40;;
24483;SDS011;12643;51.620;7.548;2023-07-29T09:15:53;2.85;;;1.20;;
24483;SDS011;12643;51.620;7.548;2023-07-29T09:18:26;1.20;;;1.02;;
24483;SDS011;12643;51.620;7.548;2023-07-29T09:21:02;3.67;;;1.10;;
24483;SDS011;12643;51.620;7.548;2023-07-29T09:23:38;4.22;;;1.50;;
24483;SDS011;12643;51.620;7.548;2023-07-29T09:26:06;1.25;;;1.15;;
24483;SDS011;12643;51.620;7.548;2023-07-29T09:28:36;1.42;;;1.10;;
24483;SDS011;12643;51.620;7.548;2023-07-29T09:31:18;1.50;;;1.10;;
24483;SDS011;12643;51.620;7.548;2023-07-29T09:33:48;3.15;;;1.55;;
24483;SDS011;12643;51.620;7.548;2023-07-29T09:36:17;1.73;;;1.40;;
24483;SDS011;12643;51.620;7.548;2023-07-29T09:38:48;1.55;;;1.40;;
24483;SDS011;12643;51.620;7.548;2023-07-29T09:41:19;1.80;;;1.50;;
24483;SDS011;12643;51.620;7.548;2023-07-29T09:43:56;1.80;;;1.70;;
24483;SDS011;12643;51.620;7.548;2023-07-29T09:46:26;2.55;;;1.60;;
24483;SDS011;12643;51.620;7.548;2023-07-29T09:49:00;2.10;;;1.50;;
24483;SDS011;12643;51.620;7.548;2023-07-29T09:51:31;3.13;;;1.40;;
24483;SDS011;12643;51.620;7.548;2023-07-29T09:54:04;3.90;;;1.98;;
24483;SDS011;12643;51.620;7.548;2023-07-29T09:56:32;2.15;;;1.80;;
24483;SDS011;12643;51.620;7.548;2023-07-29T09:59:00;2.15;;;1.95;;
24483;SDS011;12643;51.620;7.548;2023-07-29T10:01:28;4.25;;;2.00;;
24483;SDS011;12643;51.620;7.548;2023-07-29T10:03:56;2.03;;;1.85;;
24483;SDS011;12643;51.620;7.548;2023-07-29T10:06:27;2.47;;;1.45;;
24483;SDS011;12643;51.620;7.548;2023-07-29T10:08:58;1.98;;;1.67;;
24483;SDS011;12643;51.620;7.548;2023-07-29T10:11:29;4.15;;;1.77;;
24483;SDS011;12643;51.620;7.548;2023-07-29T10:13:58;2.55;;;1.70;;
24483;SDS011;12643;51.620;7.548;2023-07-29T10:16:27;2.38;;;1.52;;
24483;SDS011;12643;51.620;7.548;2023-07-29T10:19:01;3.47;;;2.10;;
24483;SDS011;12643;51.620;7.548;2023-07-29T10:21:30;2.42;;;1.70;;
24483;SDS011;12643;51.620;7.548;2023-07-29T10:24:01;1.95;;;1.60;;
24483;SDS011;12643;51.620;7.548;2023-07-29T10:26:32;2.00;;;1.40;;
24483;SDS011;12643;51.620;7.548;2023-07-29T10:29:02;1.70;;;1.60;;
24483;SDS011;12643;51.620;7.548;2023-07-29T10:31:34;1.92;;;1.40;;
24483;SDS011;12643;51.620;7.548;2023-07-29T10:34:03;3.08;;;2.08;;
24483;SDS011;12643;51.620;7.548;2023-07-29T10:36:32;1.42;;;1.33;;
24483;SDS011;12643;51.620;7.548;2023-07-29T10:39:01;1.80;;;1.42;;
24483;SDS011;12643;51.620;7.548;2023-07-29T10:47:17;3.42;;;1.73;;
24483;SDS011;12643;51.620;7.548;2023-07-29T10:49:47;2.53;;;1.90;;
24483;SDS011;12643;51.620;7.548;2023-07-29T10:52:28;1.75;;;1.60;;
24483;SDS011;12643;51.620;7.548;2023-07-29T10:58:04;2.38;;;1.85;;
24483;SDS011;12643;51.620;7.548;2023-07-29T11:00:44;3.27;;;1.80;;
24483;SDS011;12643;51.620;7.548;2023-07-29T11:03:13;2.25;;;1.83;;
24483;SDS011;12643;51.620;7.548;2023-07-29T11:05:42;1.95;;;1.60;;
24483;SDS011;12643;51.620;7.548;2023-07-29T11:08:18;1.55;;;1.45;;
24483;SDS011;12643;51.620;7.548;2023-07-29T11:13:38;1.77;;;1.67;;
24483;SDS011;12643;51.620;7.548;2023-07-29T11:16:09;1.70;;;1.60;;
24483;SDS011;12643;51.620;7.548;2023-07-29T11:18:42;3.80;;;1.70;;
24483;SDS011;12643;51.620;7.548;2023-07-29T11:21:13;1.58;;;1.40;;
24483;SDS011;12643;51.620;7.548;2023-07-29T11:23:42;1.90;;;1.67;;
24483;SDS011;12643;51.620;7.548;2023-07-29T11:26:11;1.73;;;1.60;;
24483;SDS011;12643;51.620;7.548;2023-07-29T11:28:42;1.65;;;1.55;;
24483;SDS011;12643;51.620;7.548;2023-07-29T11:31:12;1.67;;;1.25;;
24483;SDS011;12643;51.620;7.548;2023-07-29T11:33:40;1.77;;;1.45;;
24483;SDS011;12643;51.620;7.548;2023-07-29T11:36:17;2.05;;;1.50;;
24483;SDS011;12643;51.620;7.548;2023-07-29T11:38:47;2.58;;;1.40;;
24483;SDS011;12643;51.620;7.548;2023-07-29T11:41:21;1.83;;;1.27;;
24483;SDS011;12643;51.620;7.548;2023-07-29T11:43:49;1.58;;;1.10;;
24483;SDS011;12643;51.620;7.548;2023-07-29T11:46:20;6.15;;;1.60;;
24483;SDS011;12643;51.620;7.548;2023-07-29T11:48:49;3.80;;;1.65;;
24483;SDS011;12643;51.620;7.548;2023-07-29T11:51:18;1.42;;;1.33;;
24483;SDS011;12643;51.620;7.548;2023-07-29T11:53:46;4.78;;;1.33;;
24483;SDS011;12643;51.620;7.548;2023-07-29T11:56:13;1.50;;;1.40;;
24483;SDS011;12643;51.620;7.548;2023-07-29T11:58:44;2.90;;;1.58;;
24483;SDS011;12643;51.620;7.548;2023-07-29T12:01:12;2.13;;;1.60;;
24483;SDS011;12643;51.620;7.548;2023-07-29T12:03:41;4.65;;;1.52;;
24483;SDS011;12643;51.620;7.548;2023-07-29T12:06:09;4.05;;;1.40;;
24483;SDS011;12643;51.620;7.548;2023-07-29T12:08:38;2.88;;;1.33;;
24483;SDS011;12643;51.620;7.548;2023-07-29T12:11:12;1.83;;;1.60;;
24483;SDS011;12643;51.620;7.548;2023-07-29T12:13:41;1.70;;;1.60;;
24483;SDS011;12643;51.620;7.548;2023-07-29T12:16:15;3.22;;;1.52;;
24483;SDS011;12643;51.620;7.548;2023-07-29T12:18:59;2.78;;;1.70;;
24483;SDS011;12643;51.620;7.548;2023-07-29T12:21:27;1.83;;;1.70;;
24483;SDS011;12643;51.620;7.548;2023-07-29T12:23:56;4.18;;;2.13;;
24483;SDS011;12643;51.620;7.548;2023-07-29T12:26:27;4.18;;;2.08;;
24483;SDS011;12643;51.620;7.548;2023-07-29T12:29:10;2.80;;;2.15;;
24483;SDS011;12643;51.620;7.548;2023-07-29T12:31:41;3.75;;;2.30;;
24483;SDS011;12643;51.620;7.548;2023-07-29T12:34:10;3.67;;;1.92;;
24483;SDS011;12643;51.620;7.548;2023-07-29T12:36:46;1.52;;;1.38;;
24483;SDS011;12643;51.620;7.548;2023-07-29T12:39:16;2.87;;;1.90;;
24483;SDS011;12643;51.620;7.548;2023-07-29T13:26:00;2.28;;;1.90;;
24483;SDS011;12643;51.620;7.548;2023-07-29T13:28:28;4.35;;;1.73;;
24483;SDS011;12643;51.620;7.548;2023-07-29T13:30:56;3.33;;;1.88;;
24483;SDS011;12643;51.620;7.548;2023-07-29T13:33:24;6.20;;;1.92;;
24483;SDS011;12643;51.620;7.548;2023-07-29T13:35:52;3.17;;;2.17;;
24483;SDS011;12643;51.620;7.548;2023-07-29T13:38:19;1.98;;;1.50;;
24483;SDS011;12643;51.620;7.548;2023-07-29T13:40:47;1.60;;;1.40;;
24483;SDS011;12643;51.620;7.548;2023-07-29T13:43:17;2.15;;;1.70;;
24483;SDS011;12643;51.620;7.548;2023-07-29T13:45:45;2.42;;;2.20;;
24483;SDS011;12643;51.620;7.548;2023-07-29T13:48:14;6.43;;;2.30;;
24483;SDS011;12643;51.620;7.548;2023-07-29T13:50:42;4.10;;;1.75;;
24483;SDS011;12643;51.620;7.548;2023-07-29T13:53:10;3.17;;;1.80;;
24483;SDS011;12643;51.620;7.548;2023-07-29T13:55:38;2.13;;;1.73;;
24483;SDS011;12643;51.620;7.548;2023-07-29T13:58:06;2.45;;;1.83;;
24483;SDS011;12643;51.620;7.548;2023-07-29T14:00:35;3.63;;;1.75;;
24483;SDS011;12643;51.620;7.548;2023-07-29T14:03:03;1.98;;;1.77;;
24483;SDS011;12643;51.620;7.548;2023-07-29T14:05:31;3.10;;;2.15;;
24483;SDS011;12643;51.620;7.548;2023-07-29T14:07:59;1.80;;;1.70;;
24483;SDS011;12643;51.620;7.548;2023-07-29T14:10:27;2.85;;;2.22;;
24483;SDS011;12643;51.620;7.548;2023-07-29T14:12:55;3.83;;;1.90;;
24483;SDS011;12643;51.620;7.548;2023-07-29T14:15:23;2.03;;;1.90;;
24483;SDS011;12643;51.620;7.548;2023-07-29T14:17:52;2.08;;;1.70;;
24483;SDS011;12643;51.620;7.548;2023-07-29T14:20:20;7.35;;;2.30;;
24483;SDS011;12643;51.620;7.548;2023-07-29T14:22:48;4.18;;;1.90;;
24483;SDS011;12643;51.620;7.548;2023-07-29T14:25:16;1.65;;;1.55;;
24483;SDS011;12643;51.620;7.548;2023-07-29T14:27:44;1.70;;;1.60;;
24483;SDS011;12643;51.620;7.548;2023-07-29T14:30:11;2.47;;;1.90;;
24483;SDS011;12643;51.620;7.548;2023-07-29T14:32:39;3.90;;;2.33;;
24483;SDS011;12643;51.620;7.548;2023-07-29T14:35:08;5.45;;;2.42;;
24483;SDS011;12643;51.620;7.548;2023-07-29T14:37:36;3.10;;;2.80;;
24483;SDS011;12643;51.620;7.548;2023-07-29T14:40:05;3.78;;;2.25;;
24483;SDS011;12643;51.620;7.548;2023-07-29T14:42:33;9.27;;;4.30;;
24483;SDS011;12643;51.620;7.548;2023-07-29T14:45:01;9.32;;;3.33;;
24483;SDS011;12643;51.620;7.548;2023-07-29T14:47:29;3.85;;;2.92;;
24483;SDS011;12643;51.620;7.548;2023-07-29T14:50:00;4.50;;;2.35;;
24483;SDS011;12643;51.620;7.548;2023-07-29T14:52:29;5.57;;;2.80;;
24483;SDS011;12643;51.620;7.548;2023-07-29T14:54:57;7.60;;;2.67;;
24483;SDS011;12643;51.620;7.548;2023-07-29T14:57:25;3.83;;;2.55;;
24483;SDS011;12643;51.620;7.548;2023-07-29T14:59:53;4.10;;;2.75;;
24483;SDS011;12643;51.620;7.548;2023-07-29T15:02:20;6.82;;;2.25;;
24483;SDS011;12643;51.620;7.548;2023-07-29T15:04:49;3.90;;;2.00;;
24483;SDS011;12643;51.620;7.548;2023-07-29T15:07:16;6.00;;;2.10;;
24483;SDS011;12643;51.620;7.548;2023-07-29T15:09:46;4.22;;;2.08;;
24483;SDS011;12643;51.620;7.548;2023-07-29T15:12:13;4.07;;;1.70;;
24483;SDS011;12643;51.620;7.548;2023-07-29T15:14:41;5.13;;;2.03;;
24483;SDS011;12643;51.620;7.548;2023-07-29T15:17:09;6.00;;;1.80;;
24483;SDS011;12643;51.620;7.548;2023-07-29T15:19:37;7.82;;;2.00;;
24483;SDS011;12643;51.620;7.548;2023-07-29T15:22:05;2.97;;;2.00;;
24483;SDS011;12643;51.620;7.548;2023-07-29T15:24:33;3.38;;;1.85;;
24483;SDS011;12643;51.620;7.548;2023-07-29T15:27:03;5.57;;;2.97;;
24483;SDS011;12643;51.620;7.548;2023-07-29T15:29:31;4.70;;;3.45;;
24483;SDS011;12643;51.620;7.548;2023-07-29T15:31:59;8.60;;;4.43;;
24483;SDS011;12643;51.620;7.548;2023-07-29T15:34:27;6.30;;;3.90;;
24483;SDS011;12643;51.620;7.548;2023-07-29T15:36:57;6.88;;;4.53;;
24483;SDS011;12643;51.620;7.548;2023-07-29T15:39:25;5.05;;;3.33;;
24483;SDS011;12643;51.620;7.548;2023-07-29T15:41:54;5.30;;;3.10;;
24483;SDS011;12643;51.620;7.548;2023-07-29T15:44:24;3.65;;;3.03;;
24483;SDS011;12643;51.620;7.548;2023-07-29T15:46:52;4.18;;;3.40;;
24483;SDS011;12643;51.620;7.548;2023-07-29T15:49:22;6.43;;;3.42;;
24483;SDS011;12643;51.620;7.548;2023-07-29T15:51:50;5.75;;;3.22;;
24483;SDS011;12643;51.620;7.548;2023-07-29T15:54:21;4.60;;;3.65;;
24483;SDS011;12643;51.620;7.548;2023-07-29T15:56:48;5.50;;;3.53;;